createdAt,value
2023-04-10T00:00:48.134Z,100017.00
2023-04-10T00:02:21.985Z,100007.00
2023-04-10T00:03:56.061Z,100012.00
2023-04-10T00:05:30.974Z,100010.00
2023-04-10T00:07:04.179Z,100013.00
2023-04-10T00:08:37.568Z,100010.00
2023-04-10T00:10:10.866Z,100003.00
2023-04-10T00:11:44.090Z,100010.00
2023-04-10T00:13:18.145Z,100002.00
2023-04-10T00:14:51.219Z,100002.00
2023-04-10T00:16:24.472Z,99994.00
2023-04-10T00:17:57.674Z,99990.00
2023-04-10T00:19:31.087Z,100007.00
2023-04-10T00:21:07.071Z,100001.00
2023-04-10T00:22:41.787Z,99998.00
2023-04-10T00:24:15.763Z,99999.00
2023-04-10T00:25:49.380Z,99991.00
2023-04-10T00:27:22.580Z,99995.00
2023-04-10T00:28:55.723Z,99992.00
2023-04-10T00:30:29.042Z,99989.00
2023-04-10T00:32:02.275Z,99997.00
2023-04-10T00:33:35.733Z,99992.00
2023-04-10T00:35:09.578Z,99992.00
2023-04-10T00:36:44.076Z,99991.00
2023-04-10T00:38:17.344Z,99984.00
2023-04-10T00:39:50.498Z,99979.00
2023-04-10T00:41:24.061Z,99975.00
2023-04-10T00:42:56.297Z,99975.00
2023-04-10T00:44:29.522Z,99976.00
2023-04-10T00:46:02.797Z,99976.00
2023-04-10T00:47:36.550Z,99971.00
2023-04-10T00:49:09.754Z,99972.00
2023-04-10T00:50:42.974Z,99978.00
2023-04-10T00:52:17.933Z,99968.00
2023-04-10T00:53:52.514Z,99966.00
2023-04-10T00:55:27.275Z,99965.00
2023-04-10T00:57:00.745Z,99956.00
2023-04-10T00:58:34.117Z,99963.00
2023-04-10T01:00:09.362Z,99968.00
2023-04-10T01:01:43.243Z,99949.00
2023-04-10T01:03:20.982Z,99958.00
2023-04-10T01:04:54.474Z,99944.00
2023-04-10T01:06:49.261Z,99956.00
2023-04-10T01:08:40.284Z,99951.00
2023-04-10T01:10:27.913Z,99959.00
2023-04-10T01:12:14.166Z,99956.00
2023-04-10T01:14:02.992Z,99951.00
2023-04-10T01:15:50.828Z,99942.00
2023-04-10T01:17:32.072Z,99951.00
2023-04-10T01:19:26.658Z,99946.00
2023-04-10T01:21:03.862Z,99940.00
2023-04-10T01:22:46.828Z,99942.00
2023-04-10T01:24:39.083Z,99944.00
2023-04-10T01:26:17.075Z,99943.00
2023-04-10T01:28:13.982Z,99946.00
2023-04-10T01:29:58.425Z,99940.00
2023-04-10T01:31:41.783Z,99946.00
2023-04-10T01:33:21.711Z,99936.00
2023-04-10T01:34:59.266Z,99937.00
2023-04-10T01:36:47.818Z,99942.00
2023-04-10T01:38:27.299Z,99935.00
2023-04-10T01:40:06.661Z,99937.00
2023-04-10T01:41:44.001Z,99940.00
2023-04-10T01:43:20.579Z,99937.00
2023-04-10T01:45:00.264Z,99941.00
2023-04-10T01:46:34.064Z,99941.00
2023-04-10T01:48:08.934Z,99936.00
2023-04-10T01:49:45.748Z,99940.00
2023-04-10T01:51:19.644Z,99939.00
2023-04-10T01:52:53.857Z,99937.00
2023-04-10T01:54:32.516Z,99930.00
2023-04-10T01:56:08.262Z,99919.00
2023-04-10T01:57:49.818Z,99911.00
2023-04-10T01:59:23.392Z,99915.00
2023-04-10T02:00:58.244Z,99900.00
2023-04-10T02:02:33.201Z,99904.00
2023-04-10T02:04:06.719Z,99890.00
2023-04-10T02:05:55.007Z,99897.00
2023-04-10T02:07:38.044Z,99891.00
2023-04-10T02:09:22.864Z,99888.00
2023-04-10T02:11:03.968Z,99889.00
2023-04-10T02:12:42.591Z,99895.00
2023-04-10T02:14:23.029Z,99894.00
2023-04-10T02:16:03.985Z,99894.00
2023-04-10T02:17:40.677Z,99896.00
2023-04-10T02:19:15.283Z,99894.00
2023-04-10T02:20:52.596Z,99898.00
2023-04-10T02:22:26.709Z,99895.00
2023-04-10T02:24:00.462Z,99897.00
2023-04-10T02:25:34.247Z,99893.00
2023-04-10T02:27:06.504Z,99894.00
2023-04-10T02:28:40.561Z,99890.00
2023-04-10T02:30:13.775Z,99886.00
2023-04-10T02:31:50.733Z,99886.00
2023-04-10T02:33:26.124Z,99898.00
2023-04-10T02:34:58.320Z,99893.00
2023-04-10T02:36:31.718Z,99888.00
2023-04-10T02:38:05.386Z,99877.00
2023-04-10T02:39:42.822Z,99883.00
2023-04-10T02:41:16.407Z,99879.00
2023-04-10T02:42:49.796Z,99888.00
2023-04-10T02:44:23.105Z,99871.00
2023-04-10T02:45:57.000Z,99872.00
2023-04-10T02:47:34.676Z,99878.00
2023-04-10T02:49:07.881Z,99871.00
2023-04-10T02:50:45.920Z,99874.00
2023-04-10T02:52:18.976Z,99884.00
2023-04-10T02:53:53.237Z,99869.00
2023-04-10T02:55:35.066Z,99868.00
2023-04-10T02:57:08.320Z,99870.00
2023-04-10T02:58:45.393Z,99867.00
2023-04-10T03:00:21.320Z,99862.00
2023-04-10T03:02:17.328Z,99863.00
2023-04-10T03:03:52.324Z,99858.00
2023-04-10T03:05:35.557Z,99860.00
2023-04-10T03:07:08.795Z,99858.00
2023-04-10T03:08:43.749Z,99862.00
2023-04-10T03:10:18.213Z,99867.00
2023-04-10T03:11:51.452Z,99864.00
2023-04-10T03:13:23.646Z,99854.00
2023-04-10T03:14:56.840Z,99860.00
2023-04-10T03:16:29.030Z,99858.00
2023-04-10T03:18:02.563Z,99859.00
2023-04-10T03:19:37.593Z,99859.00
2023-04-10T03:21:11.158Z,99849.00
2023-04-10T03:22:44.606Z,99852.00
2023-04-10T03:24:17.804Z,99852.00
2023-04-10T03:25:53.665Z,99852.00
2023-04-10T03:27:27.506Z,99850.00
2023-04-10T03:29:01.062Z,99851.00
2023-04-10T03:30:35.208Z,99838.00
2023-04-10T03:32:08.971Z,99839.00
2023-04-10T03:33:42.397Z,99843.00
2023-04-10T03:35:16.110Z,99845.00
2023-04-10T03:36:49.343Z,99837.00
2023-04-10T03:38:21.448Z,99841.00
2023-04-10T03:39:54.708Z,99838.00
2023-04-10T03:41:27.807Z,99829.00
2023-04-10T03:43:01.403Z,99828.00
2023-04-10T03:44:37.859Z,99821.00
2023-04-10T03:46:11.177Z,99821.00
2023-04-10T03:47:48.674Z,99818.00
2023-04-10T03:49:22.649Z,99821.00
2023-04-10T03:50:59.766Z,99830.00
2023-04-10T03:52:33.301Z,99810.00
2023-04-10T03:54:06.522Z,99817.00
2023-04-10T03:55:40.998Z,99807.00
2023-04-10T03:57:13.181Z,99805.00
2023-04-10T03:58:46.887Z,99806.00
2023-04-10T04:00:22.295Z,99809.00
2023-04-10T04:01:55.539Z,99811.00
2023-04-10T04:03:29.104Z,99803.00
2023-04-10T04:05:06.228Z,99805.00
2023-04-10T04:06:52.413Z,99801.00
2023-04-10T04:08:36.098Z,99813.00
2023-04-10T04:10:18.275Z,99807.00
2023-04-10T04:12:29.745Z,99817.00
2023-04-10T04:14:09.668Z,99808.00
2023-04-10T04:16:01.889Z,99793.00
2023-04-10T04:17:53.900Z,99803.00
2023-04-10T04:19:45.445Z,99792.00
2023-04-10T04:21:45.410Z,99797.00
2023-04-10T04:23:44.449Z,99801.00
2023-04-10T04:25:36.399Z,99789.00
2023-04-10T04:27:28.062Z,99798.00
2023-04-10T04:29:30.906Z,99788.00
2023-04-10T04:31:13.480Z,99789.00
2023-04-10T04:32:55.868Z,99782.00
2023-04-10T04:34:47.704Z,99796.00
2023-04-10T04:36:43.345Z,99787.00
2023-04-10T04:38:24.495Z,99777.00
2023-04-10T04:40:13.918Z,99788.00
2023-04-10T04:42:05.424Z,99788.00
2023-04-10T04:43:57.328Z,99782.00
2023-04-10T04:45:53.403Z,99789.00
2023-04-10T04:47:55.811Z,99783.00
2023-04-10T04:49:37.192Z,99786.00
2023-04-10T04:51:39.932Z,99779.00
2023-04-10T04:53:29.721Z,99771.00
2023-04-10T04:55:13.602Z,99773.00
2023-04-10T04:57:05.497Z,99772.00
2023-04-10T04:58:57.015Z,99764.00
2023-04-10T05:01:01.006Z,99763.00
2023-04-10T05:02:53.145Z,99768.00
2023-04-10T05:04:40.684Z,99757.00
2023-04-10T05:06:22.089Z,99761.00
2023-04-10T05:08:17.876Z,99763.00
2023-04-10T05:10:08.136Z,99754.00
2023-04-10T05:12:01.427Z,99757.00
2023-04-10T05:13:54.825Z,99749.00
2023-04-10T05:15:39.218Z,99760.00
2023-04-10T05:17:18.842Z,99753.00
2023-04-10T05:19:01.637Z,99744.00
2023-04-10T05:20:53.485Z,99747.00
2023-04-10T05:22:45.412Z,99739.00
2023-04-10T05:24:40.641Z,99743.00
2023-04-10T05:26:29.780Z,99745.00
2023-04-10T05:28:22.023Z,99748.00
2023-04-10T05:30:24.652Z,99739.00
2023-04-10T05:32:14.378Z,99744.00
2023-04-10T05:33:56.210Z,99744.00
2023-04-10T05:35:36.522Z,99745.00
2023-04-10T05:37:19.593Z,99756.00
2023-04-10T05:39:02.733Z,99750.00
2023-04-10T05:40:46.678Z,99760.00
2023-04-10T05:42:38.864Z,99753.00
2023-04-10T05:44:42.033Z,99765.00
2023-04-10T05:46:32.367Z,99764.00
2023-04-10T05:48:19.494Z,99765.00
2023-04-10T05:50:15.998Z,99757.00
2023-04-10T05:52:07.839Z,99762.00
2023-04-10T05:53:57.045Z,99757.00
2023-04-10T05:55:47.017Z,99754.00
2023-04-10T05:57:43.196Z,99764.00
2023-04-10T05:59:44.240Z,99769.00
2023-04-10T06:01:28.135Z,99759.00
2023-04-10T06:03:05.626Z,99751.00
2023-04-10T06:04:40.421Z,99757.00
2023-04-10T06:06:13.836Z,99765.00
2023-04-10T06:07:47.117Z,99757.00
2023-04-10T06:09:21.274Z,99765.00
2023-04-10T06:10:54.378Z,99753.00
2023-04-10T06:12:27.807Z,99752.00
2023-04-10T06:14:02.567Z,99751.00
2023-04-10T06:15:43.799Z,99757.00
2023-04-10T06:17:17.004Z,99758.00
2023-04-10T06:18:52.325Z,99752.00
2023-04-10T06:20:26.121Z,99754.00
2023-04-10T06:21:59.597Z,99750.00
2023-04-10T06:23:32.977Z,99748.00
2023-04-10T06:25:07.315Z,99749.00
2023-04-10T06:26:40.840Z,99751.00
2023-04-10T06:28:14.076Z,99741.00
2023-04-10T06:29:50.226Z,99742.00
2023-04-10T06:31:28.528Z,99744.00
2023-04-10T06:33:02.230Z,99745.00
2023-04-10T06:34:36.852Z,99736.00
2023-04-10T06:36:12.732Z,99733.00
2023-04-10T06:37:51.864Z,99741.00
2023-04-10T06:39:26.264Z,99730.00
2023-04-10T06:40:59.466Z,99745.00
2023-04-10T06:42:32.593Z,99738.00
2023-04-10T06:44:12.491Z,99745.00
2023-04-10T06:45:46.405Z,99737.00
2023-04-10T06:47:21.009Z,99738.00
2023-04-10T06:48:54.400Z,99737.00
2023-04-10T06:50:27.802Z,99734.00
2023-04-10T06:52:00.910Z,99737.00
2023-04-10T06:53:34.055Z,99734.00
2023-04-10T06:55:08.630Z,99733.00
2023-04-10T06:56:41.732Z,99732.00
2023-04-10T06:58:14.941Z,99728.00
2023-04-10T06:59:48.238Z,99729.00
2023-04-10T07:01:21.478Z,99726.00
2023-04-10T07:02:56.263Z,99729.00
2023-04-10T07:04:29.380Z,99728.00
2023-04-10T07:06:03.187Z,99723.00
2023-04-10T07:07:36.444Z,99715.00
2023-04-10T07:09:09.674Z,99726.00
2023-04-10T07:10:43.221Z,99730.00
2023-04-10T07:12:16.505Z,99716.00
2023-04-10T07:13:53.699Z,99716.00
2023-04-10T07:15:27.328Z,99725.00
2023-04-10T07:17:00.670Z,99725.00
2023-04-10T07:18:36.065Z,99720.00
2023-04-10T07:20:10.979Z,99717.00
2023-04-10T07:21:44.329Z,99720.00
2023-04-10T07:23:17.414Z,99722.00
2023-04-10T07:24:50.591Z,99729.00
2023-04-10T07:26:23.912Z,99723.00
2023-04-10T07:27:57.445Z,99722.00
2023-04-10T07:29:31.615Z,99723.00
2023-04-10T07:31:05.092Z,99718.00
2023-04-10T07:32:39.824Z,99714.00
2023-04-10T07:34:14.443Z,99717.00
2023-04-10T07:35:47.575Z,99722.00
2023-04-10T07:37:20.909Z,99703.00
2023-04-10T07:38:54.331Z,99700.00
2023-04-10T07:40:27.689Z,99711.00
2023-04-10T07:42:01.265Z,99708.00
2023-04-10T07:43:34.403Z,99703.00
2023-04-10T07:45:09.472Z,99706.00
2023-04-10T07:46:42.935Z,99705.00
2023-04-10T07:48:16.217Z,99711.00
2023-04-10T07:49:51.053Z,99704.00
2023-04-10T07:51:24.367Z,99693.00
2023-04-10T07:52:57.486Z,99697.00
2023-04-10T07:54:34.264Z,99694.00
2023-04-10T07:56:10.750Z,99689.00
2023-04-10T07:57:43.828Z,99694.00
2023-04-10T07:59:16.935Z,99681.00
2023-04-10T08:00:50.026Z,99688.00
2023-04-10T08:02:23.916Z,99679.00
2023-04-10T08:03:57.585Z,99679.00
2023-04-10T08:05:32.278Z,99670.00
2023-04-10T08:07:05.693Z,99674.00
2023-04-10T08:08:39.366Z,99654.00
2023-04-10T08:10:12.958Z,99652.00
2023-04-10T08:11:46.185Z,99645.00
2023-04-10T08:13:19.329Z,99655.00
2023-04-10T08:14:52.538Z,99642.00
2023-04-10T08:16:27.204Z,99662.00
2023-04-10T08:18:00.613Z,99638.00
2023-04-10T08:19:33.853Z,99644.00
2023-04-10T08:21:08.880Z,99649.00
2023-04-10T08:22:42.044Z,99631.00
2023-04-10T08:24:15.517Z,99658.00
2023-04-10T08:25:48.891Z,99646.00
2023-04-10T08:27:22.102Z,99648.00
2023-04-10T08:28:58.428Z,99643.00
2023-04-10T08:30:31.632Z,99632.00
2023-04-10T08:32:05.406Z,99634.00
2023-04-10T08:33:38.645Z,99633.00
2023-04-10T08:35:12.092Z,99625.00
2023-04-10T08:36:46.600Z,99634.00
2023-04-10T08:38:21.306Z,99621.00
2023-04-10T08:39:54.525Z,99611.00
2023-04-10T08:41:27.659Z,99622.00
2023-04-10T08:43:01.935Z,99610.00
2023-04-10T08:44:37.003Z,99614.00
2023-04-10T08:46:11.257Z,99614.00
2023-04-10T08:47:47.642Z,99608.00
2023-04-10T08:49:32.922Z,99631.00
2023-04-10T08:51:15.516Z,99611.00
2023-04-10T08:52:57.590Z,99603.00
2023-04-10T08:54:34.847Z,99609.00
2023-04-10T08:56:13.283Z,99608.00
2023-04-10T08:57:54.279Z,99604.00
2023-04-10T08:59:36.586Z,99612.00
2023-04-10T09:01:12.195Z,99606.00
2023-04-10T09:02:46.145Z,99614.00
2023-04-10T09:04:19.508Z,99602.00
2023-04-10T09:05:52.847Z,99607.00
2023-04-10T09:07:27.608Z,99598.00
2023-04-10T09:09:02.937Z,99598.00
2023-04-10T09:10:36.459Z,99594.00
2023-04-10T09:12:10.294Z,99590.00
2023-04-10T09:13:46.348Z,99588.00
2023-04-10T09:15:19.658Z,99578.00
2023-04-10T09:16:54.941Z,99588.00
2023-04-10T09:18:47.106Z,99578.00
2023-04-10T09:20:22.706Z,99570.00
2023-04-10T09:21:57.634Z,99576.00
2023-04-10T09:23:30.916Z,99580.00
2023-04-10T09:25:07.144Z,99570.00
2023-04-10T09:26:40.520Z,99569.00
2023-04-10T09:28:13.976Z,99569.00
2023-04-10T09:29:49.638Z,99572.00
2023-04-10T09:31:30.914Z,99575.00
2023-04-10T09:33:04.709Z,99553.00
2023-04-10T09:34:54.721Z,99562.00
2023-04-10T09:36:27.897Z,99542.00
2023-04-10T09:38:01.106Z,99542.00
2023-04-10T09:39:38.398Z,99551.00
2023-04-10T09:41:13.972Z,99543.00
2023-04-10T09:42:47.417Z,99538.00
2023-04-10T09:44:30.790Z,99538.00
2023-04-10T09:46:03.986Z,99542.00
2023-04-10T09:47:38.038Z,99542.00
2023-04-10T09:49:11.366Z,99548.00
2023-04-10T09:50:44.982Z,99543.00
2023-04-10T09:52:22.911Z,99551.00
2023-04-10T09:53:56.311Z,99543.00
2023-04-10T09:55:30.945Z,99531.00
2023-04-10T09:57:08.224Z,99547.00
2023-04-10T09:58:41.658Z,99534.00
2023-04-10T10:00:15.760Z,99541.00
2023-04-10T10:01:49.055Z,99535.00
2023-04-10T10:03:22.543Z,99530.00
2023-04-10T10:04:56.938Z,99539.00
2023-04-10T10:06:32.989Z,99541.00
2023-04-10T10:08:06.788Z,99537.00
2023-04-10T10:09:40.325Z,99534.00
2023-04-10T10:11:19.754Z,99544.00
2023-04-10T10:13:01.113Z,99540.00
2023-04-10T10:14:39.385Z,99517.00
2023-04-10T10:16:20.665Z,99521.00
2023-04-10T10:18:05.906Z,99514.00
2023-04-10T10:19:46.241Z,99524.00
2023-04-10T10:21:23.066Z,99539.00
2023-04-10T10:22:57.460Z,99514.00
2023-04-10T10:24:33.852Z,99516.00
2023-04-10T10:26:08.921Z,99524.00
2023-04-10T10:27:43.301Z,99519.00
2023-04-10T10:29:18.691Z,99519.00
2023-04-10T10:30:52.941Z,99522.00
2023-04-10T10:32:27.767Z,99524.00
2023-04-10T10:34:04.723Z,99516.00
2023-04-10T10:35:38.743Z,99520.00
2023-04-10T10:37:13.417Z,99515.00
2023-04-10T10:39:04.285Z,99505.00
2023-04-10T10:40:50.368Z,99514.00
2023-04-10T10:42:34.045Z,99503.00
2023-04-10T10:44:14.264Z,99495.00
2023-04-10T10:45:59.643Z,99494.00
2023-04-10T10:47:35.737Z,99483.00
2023-04-10T10:49:09.120Z,99491.00
2023-04-10T10:50:58.651Z,99484.00
2023-04-10T10:52:43.122Z,99475.00
2023-04-10T10:54:42.417Z,99481.00
2023-04-10T10:56:37.268Z,99476.00
2023-04-10T10:58:13.183Z,99479.00
2023-04-10T10:59:58.787Z,99471.00
2023-04-10T11:01:33.728Z,99475.00
2023-04-10T11:03:29.477Z,99464.00
2023-04-10T11:05:03.078Z,99454.00
2023-04-10T11:06:53.286Z,99452.00
2023-04-10T11:08:48.153Z,99448.00
2023-04-10T11:11:00.765Z,99445.00
2023-04-10T11:13:17.002Z,99446.00
2023-04-10T11:15:00.492Z,99456.00
2023-04-10T11:16:49.837Z,99441.00
2023-04-10T11:19:15.016Z,99437.00
2023-04-10T11:21:09.955Z,99430.00
2023-04-10T11:23:09.388Z,99428.00
2023-04-10T11:25:00.568Z,99427.00
2023-04-10T11:26:42.297Z,99426.00
2023-04-10T11:28:36.343Z,99426.00
2023-04-10T11:30:37.407Z,99413.00
2023-04-10T11:32:11.548Z,99414.00
2023-04-10T11:33:47.559Z,99407.00
2023-04-10T11:35:22.859Z,99402.00
2023-04-10T11:36:56.172Z,99405.00
2023-04-10T11:38:29.328Z,99399.00
2023-04-10T11:40:07.429Z,99384.00
2023-04-10T11:41:43.335Z,99381.00
2023-04-10T11:43:15.672Z,99376.00
2023-04-10T11:44:48.941Z,99373.00
2023-04-10T11:46:22.471Z,99380.00
2023-04-10T11:47:56.679Z,99375.00
2023-04-10T11:49:32.832Z,99370.00
2023-04-10T11:51:15.500Z,99363.00
2023-04-10T11:52:50.240Z,99377.00
2023-04-10T11:54:25.880Z,99369.00
2023-04-10T11:55:59.011Z,99365.00
2023-04-10T11:57:36.472Z,99370.00
2023-04-10T11:59:11.426Z,99363.00
2023-04-10T12:00:44.623Z,99368.00
2023-04-10T12:02:17.882Z,99362.00
2023-04-10T12:03:51.784Z,99353.00
2023-04-10T12:05:25.781Z,99350.00
2023-04-10T12:07:01.274Z,99353.00
2023-04-10T12:08:36.248Z,99338.00
2023-04-10T12:10:10.585Z,99347.00
2023-04-10T12:11:52.923Z,99341.00
2023-04-10T12:13:26.997Z,99339.00
2023-04-10T12:15:00.149Z,99335.00
2023-04-10T12:16:34.193Z,99341.00
2023-04-10T12:18:07.579Z,99336.00
2023-04-10T12:19:41.377Z,99331.00
2023-04-10T12:21:14.983Z,99334.00
2023-04-10T12:22:49.578Z,99327.00
2023-04-10T12:24:42.477Z,99317.00
2023-04-10T12:26:17.760Z,99327.00
2023-04-10T12:27:51.980Z,99326.00
2023-04-10T12:29:28.304Z,99319.00
2023-04-10T12:31:01.750Z,99326.00
2023-04-10T12:32:35.190Z,99326.00
2023-04-10T12:34:11.176Z,99309.00
2023-04-10T12:35:43.641Z,99315.00
2023-04-10T12:37:16.892Z,99310.00
2023-04-10T12:38:51.792Z,99306.00
2023-04-10T12:40:25.354Z,99310.00
2023-04-10T12:42:13.288Z,99298.00
2023-04-10T12:43:46.463Z,99294.00
2023-04-10T12:45:19.765Z,99309.00
2023-04-10T12:47:02.483Z,99310.00
2023-04-10T12:48:36.062Z,99305.00
2023-04-10T12:50:11.281Z,99287.00
2023-04-10T12:51:47.232Z,99300.00
2023-04-10T12:53:20.807Z,99293.00
2023-04-10T12:54:55.483Z,99298.00
2023-04-10T12:56:28.518Z,99304.00
2023-04-10T12:58:17.920Z,99289.00
2023-04-10T12:59:51.766Z,99278.00
2023-04-10T13:01:24.962Z,99273.00
2023-04-10T13:02:58.285Z,99268.00
2023-04-10T13:04:33.124Z,99267.00
2023-04-10T13:06:08.249Z,99256.00
2023-04-10T13:07:42.316Z,99261.00
2023-04-10T13:09:17.514Z,99262.00
2023-04-10T13:10:52.107Z,99256.00
2023-04-10T13:12:26.085Z,99251.00
2023-04-10T13:13:59.266Z,99256.00
2023-04-10T13:15:34.421Z,99264.00
2023-04-10T13:17:07.673Z,99261.00
2023-04-10T13:18:41.096Z,99247.00
2023-04-10T13:20:14.330Z,99247.00
2023-04-10T13:21:47.697Z,99238.00
2023-04-10T13:23:21.207Z,99246.00
2023-04-10T13:24:54.351Z,99248.00
2023-04-10T13:26:29.253Z,99243.00
2023-04-10T13:28:09.740Z,99243.00
2023-04-10T13:29:44.431Z,99236.00
2023-04-10T13:31:17.527Z,99245.00
2023-04-10T13:32:50.803Z,99226.00
2023-04-10T13:34:23.964Z,99241.00
2023-04-10T13:35:57.570Z,99222.00
2023-04-10T13:37:31.030Z,99237.00
2023-04-10T13:39:04.317Z,99216.00
2023-04-10T13:40:37.490Z,99227.00
2023-04-10T13:42:12.013Z,99230.00
2023-04-10T13:43:45.383Z,99224.00
2023-04-10T13:45:18.707Z,99223.00
2023-04-10T13:46:52.317Z,99223.00
2023-04-10T13:48:37.386Z,99218.00
2023-04-10T13:50:13.769Z,99216.00
2023-04-10T13:51:47.877Z,99210.00
2023-04-10T13:53:21.317Z,99204.00
2023-04-10T13:54:54.524Z,99204.00
2023-04-10T13:56:27.686Z,99193.00
2023-04-10T13:58:02.316Z,99176.00
2023-04-10T13:59:35.465Z,99177.00
2023-04-10T14:01:09.002Z,99179.00
2023-04-10T14:02:42.292Z,99175.00
2023-04-10T14:04:15.884Z,99173.00
2023-04-10T14:05:50.489Z,99162.00
2023-04-10T14:07:23.603Z,99154.00
2023-04-10T14:08:56.900Z,99150.00
2023-04-10T14:10:30.200Z,99139.00
2023-04-10T14:12:03.774Z,99145.00
2023-04-10T14:13:38.439Z,99129.00
2023-04-10T14:15:11.901Z,99141.00
2023-04-10T14:16:45.447Z,99136.00
2023-04-10T14:18:18.605Z,99127.00
2023-04-10T14:19:53.642Z,99121.00
2023-04-10T14:21:27.312Z,99117.00
2023-04-10T14:23:00.477Z,99120.00
2023-04-10T14:24:33.926Z,99112.00
2023-04-10T14:26:07.466Z,99112.00
2023-04-10T14:27:40.707Z,99112.00
2023-04-10T14:29:18.163Z,99105.00
2023-04-10T14:30:53.759Z,99114.00
2023-04-10T14:32:27.229Z,99109.00
2023-04-10T14:34:00.467Z,99115.00
2023-04-10T14:35:33.681Z,99103.00
2023-04-10T14:37:07.520Z,99091.00
2023-04-10T14:38:40.697Z,99085.00
2023-04-10T14:40:13.839Z,99084.00
2023-04-10T14:41:47.016Z,99076.00
2023-04-10T14:43:20.665Z,99067.00
2023-04-10T14:44:55.168Z,99063.00
2023-04-10T14:46:28.284Z,99064.00
2023-04-10T14:48:02.171Z,99043.00
2023-04-10T14:49:35.863Z,99058.00
2023-04-10T14:51:12.696Z,99055.00
2023-04-10T14:52:45.814Z,99052.00
2023-04-10T14:54:21.684Z,99058.00
2023-04-10T14:55:54.782Z,99059.00
2023-04-10T14:57:29.531Z,99060.00
2023-04-10T14:59:02.571Z,99060.00
2023-04-10T15:00:38.240Z,99059.00
2023-04-10T15:02:11.701Z,99060.00
2023-04-10T15:03:48.947Z,99052.00
2023-04-10T15:05:24.148Z,99049.00
2023-04-10T15:06:57.591Z,99039.00
2023-04-10T15:08:30.923Z,99039.00
2023-04-10T15:10:04.429Z,99042.00
2023-04-10T15:11:37.625Z,99041.00
2023-04-10T15:13:10.879Z,99032.00
2023-04-10T15:14:43.998Z,99035.00
2023-04-10T15:16:18.761Z,99038.00
2023-04-10T15:17:52.251Z,99037.00
2023-04-10T15:19:25.493Z,99043.00
2023-04-10T15:20:58.865Z,99040.00
2023-04-10T15:22:32.250Z,99047.00
2023-04-10T15:24:05.881Z,99033.00
2023-04-10T15:25:39.099Z,99048.00
2023-04-10T15:27:12.234Z,99050.00
2023-04-10T15:28:45.471Z,99041.00
2023-04-10T15:30:19.145Z,99043.00
2023-04-10T15:31:53.991Z,99037.00
2023-04-10T15:33:27.181Z,99029.00
2023-04-10T15:35:00.466Z,99018.00
2023-04-10T15:36:33.636Z,99020.00
2023-04-10T15:38:07.141Z,99025.00
2023-04-10T15:39:43.408Z,99026.00
2023-04-10T15:41:16.700Z,99034.00
2023-04-10T15:42:49.837Z,99025.00
2023-04-10T15:44:23.236Z,99011.00
2023-04-10T15:46:00.599Z,99010.00
2023-04-10T15:47:35.224Z,99012.00
2023-04-10T15:49:08.405Z,99006.00
2023-04-10T15:50:42.901Z,99004.00
2023-04-10T15:52:16.065Z,99012.00
2023-04-10T15:53:49.252Z,99016.00
2023-04-10T15:55:22.650Z,99013.00
2023-04-10T15:56:57.594Z,98998.00
2023-04-10T15:58:30.705Z,99003.00
2023-04-10T16:00:04.474Z,99001.00
2023-04-10T16:01:38.028Z,99000.00
2023-04-10T16:03:13.003Z,98994.00
2023-04-10T16:04:46.380Z,99003.00
2023-04-10T16:06:19.816Z,98994.00
2023-04-10T16:07:53.217Z,98997.00
2023-04-10T16:09:27.032Z,98989.00
2023-04-10T16:11:00.266Z,98986.00
2023-04-10T16:12:33.489Z,98986.00
2023-04-10T16:14:07.046Z,98974.00
2023-04-10T16:15:40.523Z,98978.00
2023-04-10T16:17:13.903Z,98981.00
2023-04-10T16:18:48.476Z,98972.00
2023-04-10T16:20:21.777Z,98965.00
2023-04-10T16:21:56.974Z,98966.00
2023-04-10T16:23:30.133Z,98967.00
2023-04-10T16:26:37.466Z,98958.00
2023-04-10T16:28:10.766Z,98961.00
2023-04-10T16:29:44.801Z,98968.00
2023-04-10T16:31:18.074Z,98954.00
2023-04-10T16:32:52.174Z,98962.00
2023-04-10T16:34:26.832Z,98956.00
2023-04-10T16:36:03.052Z,98959.00
2023-04-10T16:37:37.468Z,98954.00
2023-04-10T16:39:10.829Z,98950.00
2023-04-10T16:40:44.088Z,98953.00
2023-04-10T16:42:17.328Z,98938.00
2023-04-10T16:43:50.649Z,98947.00
2023-04-10T16:45:23.729Z,98946.00
2023-04-10T16:46:56.972Z,98951.00
2023-04-10T16:48:30.719Z,98948.00
2023-04-10T16:50:07.213Z,98959.00
2023-04-10T16:51:40.398Z,98957.00
2023-04-10T16:53:13.649Z,98961.00
2023-04-10T16:54:46.884Z,98956.00
2023-04-10T16:56:20.185Z,98952.00
2023-04-10T16:57:53.402Z,98953.00
2023-04-10T16:59:26.759Z,98958.00
2023-04-10T17:01:00.155Z,98962.00
2023-04-10T17:02:34.460Z,98948.00
2023-04-10T17:04:09.118Z,98949.00
2023-04-10T17:05:43.661Z,98946.00
2023-04-10T17:07:16.919Z,98947.00
2023-04-10T17:08:50.158Z,98937.00
2023-04-10T17:10:24.048Z,98938.00
2023-04-10T17:11:57.684Z,98934.00
2023-04-10T17:13:30.926Z,98936.00
2023-04-10T17:15:05.432Z,98944.00
2023-04-10T17:16:38.974Z,98927.00
2023-04-10T17:18:12.729Z,98914.00
2023-04-10T17:19:46.119Z,98903.00
2023-04-10T17:21:20.744Z,98925.00
2023-04-10T17:22:53.953Z,98924.00
2023-04-10T17:24:27.439Z,98925.00
2023-04-10T17:26:05.518Z,98912.00
2023-04-10T17:27:40.600Z,98911.00
2023-04-10T17:29:14.108Z,98899.00
2023-04-10T17:30:48.493Z,98894.00
2023-04-10T17:32:21.796Z,98892.00
2023-04-10T17:33:55.075Z,98900.00
2023-04-10T17:35:28.292Z,98887.00
2023-04-10T17:37:03.199Z,98888.00
2023-04-10T17:38:38.004Z,98886.00
2023-04-10T17:40:13.345Z,98868.00
2023-04-10T17:41:46.699Z,98855.00
2023-04-10T17:43:20.388Z,98859.00
2023-04-10T17:44:53.652Z,98856.00
2023-04-10T17:46:26.981Z,98846.00
2023-04-10T17:48:00.502Z,98848.00
2023-04-10T17:49:33.827Z,98850.00
2023-04-10T17:51:07.975Z,98856.00
2023-04-10T17:52:42.888Z,98865.00
2023-04-10T17:54:16.587Z,98849.00
2023-04-10T17:55:49.969Z,98852.00
2023-04-10T17:57:23.305Z,98866.00
2023-04-10T17:58:56.783Z,98842.00
2023-04-10T18:00:30.852Z,98851.00
2023-04-10T18:02:04.375Z,98845.00
2023-04-10T18:03:38.258Z,98847.00
2023-04-10T18:05:12.534Z,98851.00
2023-04-10T18:06:45.716Z,98845.00
2023-04-10T18:08:20.401Z,98857.00
2023-04-10T18:09:53.886Z,98851.00
2023-04-10T18:11:27.589Z,98858.00
2023-04-10T18:13:00.938Z,98855.00
2023-04-10T18:14:36.482Z,98853.00
2023-04-10T18:16:12.002Z,98842.00
2023-04-10T18:17:45.414Z,98849.00
2023-04-10T18:19:18.724Z,98843.00
2023-04-10T18:20:52.009Z,98856.00
2023-04-10T18:22:25.347Z,98859.00
2023-04-10T18:23:59.984Z,98846.00
2023-04-10T18:25:33.761Z,98844.00
2023-04-10T18:27:07.299Z,98853.00
2023-04-10T18:28:42.106Z,98845.00
2023-04-10T18:30:16.598Z,98856.00
2023-04-10T18:31:49.868Z,98870.00
2023-04-10T18:33:24.201Z,98867.00
2023-04-10T18:34:57.712Z,98869.00
2023-04-10T18:36:31.355Z,98868.00
2023-04-10T18:38:04.712Z,98864.00
2023-04-10T18:39:39.314Z,98870.00
2023-04-10T18:41:12.806Z,98867.00
2023-04-10T18:42:46.040Z,98869.00
2023-04-10T18:44:19.345Z,98861.00
2023-04-10T18:45:52.945Z,98853.00
2023-04-10T18:47:26.379Z,98851.00
2023-04-10T18:49:00.710Z,98848.00
2023-04-10T18:50:37.868Z,98843.00
2023-04-10T18:52:11.292Z,98851.00
2023-04-10T18:53:44.556Z,98842.00
2023-04-10T18:55:19.685Z,98833.00
2023-04-10T18:56:52.955Z,98831.00
2023-04-10T18:58:26.212Z,98825.00
2023-04-10T18:59:59.500Z,98828.00
2023-04-10T19:01:33.744Z,98839.00